Terminal Aerodrome Forecast
Issued by NWS Twin Cities, MN

Home | Current Version | Previous Version | Graphics & Text | Print | Product List | Glossary On
Versions: 1 2 3 4 5 6 7 8 9 10 11 12 13 14 15 16 17 18 19 20 21 22 23 24 25
000
FTUS43 KMPX 202300
TAFSTC
TAF
KSTC 202324Z 2100/2124 10008KT P6SM SCT050 BKN110
     FM210600 10006KT 6SM BR VCSH SCT006 OVC050
     FM210900 11005KT 6SM -SHRA VCTS SCT025 BKN050CB
      TEMPO 2109/2113 2SM SHRA BKN025
     FM211300 14006KT 5SM BR OVC007
     FM211600 15006KT 6SM BR SCT008 BKN015
     FM211800 18007KT P6SM SCT020 BKN035=

USA.gov is the U.S. government's official web portal to all federal, state and local government web resources and services.